Time;durP1;ratioP1;P1;durP2;ratioP2;P2;SDS_P1;SDS_P2;PMS_P1;PMS_P2;Temp;Humidity;BMP_temperature;BMP_pressure;BME280_temperature;BME280_humidity;BME280_pressure;Samples;Min_cycle;Max_cycle;Signal;HPM_P1;HPM_P2
2022/01/21 00:01:41;;;;;;;7.15;2.00;;;;;;;-2.73;100.00;102149.59;5025473;28;20063;-87
2022/01/21 00:04:08;;;;;;;10.05;2.50;;;;;;;-2.75;100.00;102158.81;5019754;28;20045;-87
2022/01/21 00:06:35;;;;;;;11.40;2.78;;;;;;;-2.78;100.00;102162.06;5045188;28;20091;-87
2022/01/21 00:09:02;;;;;;;7.28;2.72;;;;;;;-2.80;100.00;102162.75;5003191;28;20819;-87
2022/01/21 00:11:30;;;;;;;7.40;1.95;;;;;;;-2.84;100.00;102164.22;5022767;28;20049;-87
2022/01/21 00:13:58;;;;;;;12.40;2.10;;;;;;;-2.83;100.00;102161.75;5002575;28;20049;-86
2022/01/21 00:16:27;;;;;;;11.85;2.38;;;;;;;-2.83;100.00;102161.75;5022481;28;20052;-87
2022/01/21 00:19:00;;;;;;;7.28;2.35;;;;;;;-2.83;100.00;102165.97;5008439;28;20041;-87
2022/01/21 00:32:26;;;;;;;9.95;2.28;;;;;;;-2.84;100.00;102166.78;5001657;28;20060;-87
2022/01/21 00:34:52;;;;;;;12.73;2.53;;;;;;;-2.86;100.00;102171.78;5024474;28;20400;-87
2022/01/21 00:37:19;;;;;;;11.07;3.10;;;;;;;-2.86;100.00;102170.91;5021233;28;20138;-87
2022/01/21 00:39:51;;;;;;;9.93;2.88;;;;;;;-2.86;100.00;102168.34;5022603;28;20049;-87
2022/01/21 00:42:35;;;;;;;6.10;2.45;;;;;;;-2.88;100.00;102173.38;5019908;28;20535;-87
2022/01/21 00:45:01;;;;;;;14.48;2.38;;;;;;;-2.88;100.00;102165.69;5022557;28;20068;-87
2022/01/21 00:47:29;;;;;;;16.73;2.42;;;;;;;-2.90;100.00;102162.09;5004033;28;20049;-87
2022/01/21 00:49:57;;;;;;;9.27;2.38;;;;;;;-2.90;100.00;102164.66;5022263;28;21921;-87
2022/01/21 00:52:24;;;;;;;17.58;2.80;;;;;;;-2.85;100.00;102170.13;5020817;28;20053;-87
2022/01/21 00:54:50;;;;;;;12.20;2.47;;;;;;;-2.87;100.00;102175.16;5006490;28;20052;-85
2022/01/21 00:57:17;;;;;;;15.65;2.78;;;;;;;-2.84;100.00;102165.09;5021929;28;20484;-87
2022/01/21 00:59:43;;;;;;;9.57;2.65;;;;;;;-2.84;100.00;102153.97;5022660;28;20357;-87
2022/01/21 01:02:10;;;;;;;4.10;2.47;;;;;;;-2.81;100.00;102155.88;5002935;28;20059;-87
2022/01/21 01:04:36;;;;;;;7.63;1.92;;;;;;;-2.79;100.00;102151.72;5009164;28;20045;-87
2022/01/21 01:07:04;;;;;;;19.45;3.65;;;;;;;-2.73;100.00;102142.78;5009714;28;20048;-87
2022/01/21 01:09:30;;;;;;;18.33;2.35;;;;;;;-2.72;100.00;102144.56;5006385;28;20063;-87
2022/01/21 01:12:14;;;;;;;9.63;1.95;;;;;;;-2.77;100.00;102151.03;5019316;28;20049;-87
2022/01/21 01:20:09;;;;;;;11.02;4.13;;;;;;;-2.76;100.00;102155.38;5020235;28;20535;-87
2022/01/21 01:22:45;;;;;;;7.97;2.22;;;;;;;-2.72;100.00;102156.50;5003746;28;20045;-87
2022/01/21 01:27:56;;;;;;;7.13;1.92;;;;;;;-2.63;100.00;102156.22;5006587;28;20036;-86
2022/01/21 01:30:27;;;;;;;10.43;2.55;;;;;;;-2.60;100.00;102156.44;5024086;28;20049;-87
2022/01/21 01:32:57;;;;;;;10.95;5.55;;;;;;;-2.58;100.00;102160.00;5020025;28;20339;-87
2022/01/21 01:35:25;;;;;;;8.48;2.13;;;;;;;-2.61;100.00;102158.09;5038034;28;20048;-87
2022/01/21 01:38:16;;;;;;;6.85;1.75;;;;;;;-2.62;100.00;102161.47;5002221;28;20148;-87
2022/01/21 01:40:47;;;;;;;9.60;1.58;;;;;;;-2.66;100.00;102162.94;5022847;28;20091;-87
2022/01/21 01:51:28;;;;;;;12.25;2.40;;;;;;;-2.59;100.00;102156.56;5043204;28;20071;-86
2022/01/21 01:54:09;;;;;;;10.18;2.47;;;;;;;-2.63;100.00;102153.66;5043793;28;20053;-86
2022/01/21 01:56:42;;;;;;;12.93;2.58;;;;;;;-2.61;100.00;102157.22;5038965;28;20045;-86
2022/01/21 01:59:08;;;;;;;9.52;2.00;;;;;;;-2.62;100.00;102161.47;5038162;28;20052;-86
2022/01/21 02:01:35;;;;;;;12.10;2.15;;;;;;;-2.63;100.00;102163.91;5007536;28;20057;-87
2022/01/21 02:04:01;;;;;;;8.02;1.70;;;;;;;-2.66;100.00;102170.63;4998583;28;20124;-87
2022/01/21 02:06:28;;;;;;;16.35;3.65;;;;;;;-2.64;100.00;102178.41;5017911;28;20040;-87
2022/01/21 02:08:54;;;;;;;10.65;3.30;;;;;;;-2.60;100.00;102176.97;5022859;28;20057;-86
2022/01/21 02:11:21;;;;;;;11.35;2.58;;;;;;;-2.60;100.00;102166.72;5009876;28;20052;-86
2022/01/21 02:13:55;;;;;;;5.88;2.00;;;;;;;-2.64;100.00;102163.03;5018791;28;20148;-87
2022/01/21 02:16:35;;;;;;;12.90;2.03;;;;;;;-2.63;100.00;102167.38;5011878;28;20392;-87
2022/01/21 02:21:47;;;;;;;8.27;2.28;;;;;;;-2.64;100.00;102157.91;5019805;28;20037;-85
2022/01/21 02:24:23;;;;;;;8.57;2.78;;;;;;;-2.61;100.00;102165.78;5018162;28;20045;-86
2022/01/21 02:26:52;;;;;;;17.50;2.17;;;;;;;-2.58;100.00;102158.34;5020467;28;20809;-86
2022/01/21 02:29:29;;;;;;;9.15;2.20;;;;;;;-2.59;100.00;102155.66;5010756;28;20041;-86
2022/01/21 02:31:58;;;;;;;15.43;2.47;;;;;;;-2.59;100.00;102153.09;5026461;28;20052;-87
2022/01/21 02:34:25;;;;;;;9.30;2.78;;;;;;;-2.62;100.00;102156.34;5009687;28;20049;-86
2022/01/21 02:36:51;;;;;;;10.82;3.05;;;;;;;-2.64;100.00;102152.78;5010729;28;20044;-86
2022/01/21 02:39:18;;;;;;;14.68;3.30;;;;;;;-2.63;100.00;102139.19;5012135;28;20048;-87
2022/01/21 02:41:45;;;;;;;11.02;2.47;;;;;;;-2.59;100.00;102140.28;5029501;28;20537;-86
2022/01/21 02:44:15;;;;;;;10.60;3.40;;;;;;;-2.58;100.00;102140.38;5036538;28;20057;-87
2022/01/21 02:46:44;;;;;;;10.43;2.42;;;;;;;-2.59;100.00;102138.59;5013791;28;20055;-86
2022/01/21 02:49:11;;;;;;;10.70;3.72;;;;;;;-2.61;100.00;102136.72;5024153;28;20181;-86
2022/01/21 02:51:38;;;;;;;5.80;2.03;;;;;;;-2.58;100.00;102137.81;5011496;28;20053;-87
2022/01/21 02:54:05;;;;;;;16.65;2.40;;;;;;;-2.59;100.00;102136.03;5010533;28;20044;-87
2022/01/21 02:56:37;;;;;;;10.85;2.22;;;;;;;-2.61;100.00;102135.03;5009604;28;20060;-86
2022/01/21 02:59:07;;;;;;;13.52;2.10;;;;;;;-2.62;100.00;102132.38;5027100;28;20845;-87
2022/01/21 03:01:35;;;;;;;6.82;2.85;;;;;;;-2.66;100.00;102139.84;5027015;28;20637;-86
2022/01/21 03:04:04;;;;;;;7.50;2.47;;;;;;;-2.64;100.00;102154.47;5027996;28;20052;-86
2022/01/21 03:06:31;;;;;;;8.18;2.53;;;;;;;-2.61;100.00;102154.66;5013111;28;20526;-87
2022/01/21 03:08:59;;;;;;;9.20;1.90;;;;;;;-2.62;100.00;102146.09;5030472;28;20048;-86
2022/01/21 03:11:28;;;;;;;11.35;3.38;;;;;;;-2.64;100.00;102144.22;5014834;28;20052;-86
2022/01/21 03:13:55;;;;;;;15.60;1.95;;;;;;;-2.61;100.00;102141.84;5008786;28;20060;-86
2022/01/21 03:16:22;;;;;;;6.82;2.45;;;;;;;-2.55;100.00;102150.84;5043151;28;20067;-86
2022/01/21 03:18:49;;;;;;;14.45;1.65;;;;;;;-2.48;100.00;102152.16;5027155;28;20045;-86
2022/01/21 03:21:16;;;;;;;6.30;1.20;;;;;;;-2.42;100.00;102142.31;5028545;28;20056;-87
2022/01/21 03:23:50;;;;;;;8.50;3.30;;;;;;;-2.37;100.00;102148.66;5057507;28;20042;-87
2022/01/21 03:26:21;;;;;;;12.57;2.30;;;;;;;-2.32;100.00;102148.97;5010269;28;20288;-86
2022/01/21 03:28:50;;;;;;;8.00;1.60;;;;;;;-2.28;100.00;102150.94;5042406;28;20048;-86
2022/01/21 03:31:17;;;;;;;5.22;1.48;;;;;;;-2.24;100.00;102139.19;5028280;28;20052;-86
2022/01/21 03:33:44;;;;;;;6.10;1.55;;;;;;;-2.29;100.00;102146.59;5007473;28;20416;-86
2022/01/21 03:36:12;;;;;;;13.55;2.50;;;;;;;-2.31;100.00;102152.41;5007755;28;20052;-87
2022/01/21 03:38:39;;;;;;;9.35;3.33;;;;;;;-2.30;100.00;102149.94;5017283;28;20037;-86
2022/01/21 03:41:06;;;;;;;11.55;3.38;;;;;;;-2.28;100.00;102142.34;5021240;28;20121;-86
2022/01/21 03:43:33;;;;;;;16.05;3.42;;;;;;;-2.27;100.00;102156.97;5015369;28;20057;-86
2022/01/21 03:46:00;;;;;;;9.05;2.22;;;;;;;-2.23;100.00;102161.50;5024330;28;20044;-86
2022/01/21 03:48:27;;;;;;;16.52;4.22;;;;;;;-2.16;100.00;102172.28;5021639;28;20044;-87
2022/01/21 03:50:54;;;;;;;14.73;3.50;;;;;;;-2.02;100.00;102183.47;5036007;28;20339;-86
2022/01/21 03:53:21;;;;;;;10.80;2.20;;;;;;;-1.90;100.00;102177.41;5025487;28;20048;-87
2022/01/21 03:55:47;;;;;;;13.27;1.70;;;;;;;-1.76;100.00;102173.16;5039568;28;20143;-87
2022/01/21 03:58:15;;;;;;;6.85;1.25;;;;;;;-1.71;100.00;102175.25;5027762;28;20133;-87
2022/01/21 04:00:47;;;;;;;12.90;1.65;;;;;;;-1.66;100.00;102165.28;5039580;28;20570;-86
2022/01/21 04:03:14;;;;;;;9.05;1.50;;;;;;;-1.69;100.00;102160.81;5037255;28;20052;-87
2022/01/21 04:05:41;;;;;;;12.02;1.70;;;;;;;-1.73;100.00;102165.69;5022409;28;20052;-86
2022/01/21 04:08:10;;;;;;;5.53;2.53;;;;;;;-1.74;100.00;102177.59;5024421;28;20049;-86
2022/01/21 04:10:41;;;;;;;7.03;1.17;;;;;;;-1.70;100.00;102176.13;5037564;28;20052;-86
2022/01/21 04:13:15;;;;;;;8.98;1.55;;;;;;;-1.67;100.00;102173.75;5034383;28;20581;-86
2022/01/21 04:15:44;;;;;;;8.75;1.73;;;;;;;-1.73;100.00;102169.13;5017244;28;20076;-86
2022/01/21 04:18:13;;;;;;;8.00;1.90;;;;;;;-1.75;100.00;102177.50;5036811;28;20045;-86
2022/01/21 04:20:39;;;;;;;7.20;2.10;;;;;;;-1.76;100.00;102176.63;5019833;28;20045;-87
2022/01/21 04:23:06;;;;;;;14.95;2.25;;;;;;;-1.74;100.00;102187.88;5022431;28;20128;-87
2022/01/21 04:25:33;;;;;;;7.18;1.90;;;;;;;-1.69;100.00;102181.38;5004387;28;20052;-86
2022/01/21 04:28:00;;;;;;;5.57;1.52;;;;;;;-1.66;100.00;102178.09;5016498;28;20049;-87
2022/01/21 04:30:26;;;;;;;5.45;1.63;;;;;;;-1.64;100.00;102183.34;5010455;28;20059;-87
2022/01/21 04:32:53;;;;;;;6.65;1.85;;;;;;;-1.70;100.00;102187.28;5034199;28;20052;-86
2022/01/21 04:35:19;;;;;;;7.43;1.67;;;;;;;-1.79;100.00;102194.38;5024279;28;20056;-88
2022/01/21 04:37:52;;;;;;;3.72;1.67;;;;;;;-1.86;100.00;102197.34;5040098;28;20043;-84
2022/01/21 04:40:21;;;;;;;8.27;1.85;;;;;;;-1.93;100.00;102190.00;5026208;28;20074;-85
2022/01/21 04:48:16;;;;;;;6.30;1.40;;;;;;;-2.03;100.00;102180.81;5009778;28;20039;-85
2022/01/21 04:50:53;;;;;;;9.52;1.85;;;;;;;-2.04;100.00;102177.34;4999991;28;20045;-86
2022/01/21 04:53:21;;;;;;;3.30;1.52;;;;;;;-2.07;100.00;102177.16;5007580;28;20056;-84
2022/01/21 04:55:47;;;;;;;10.75;2.35;;;;;;;-2.09;100.00;102180.41;5001615;28;20057;-85
2022/01/21 04:58:15;;;;;;;12.38;1.80;;;;;;;-2.11;100.00;102174.25;5022402;28;20083;-85
2022/01/21 05:00:42;;;;;;;9.95;2.13;;;;;;;-2.13;100.00;102181.88;5013746;28;20140;-88
2022/01/21 05:03:09;;;;;;;7.43;1.50;;;;;;;-2.14;100.00;102174.94;5023805;28;20100;-88
2022/01/21 05:05:36;;;;;;;7.72;1.77;;;;;;;-2.15;100.00;102175.75;5022762;28;20518;-88
2022/01/21 05:08:06;;;;;;;10.88;1.92;;;;;;;-2.14;100.00;102158.69;5019889;28;20056;-85
2022/01/21 05:10:34;;;;;;;8.07;2.15;;;;;;;-2.11;100.00;102157.22;5022745;28;20048;-85
2022/01/21 05:13:01;;;;;;;6.47;1.85;;;;;;;-2.11;100.00;102146.03;5025451;28;20542;-85
2022/01/21 05:15:41;;;;;;;7.80;1.67;;;;;;;-2.09;100.00;102137.66;5021217;28;20048;-87
2022/01/21 05:18:08;;;;;;;7.03;1.73;;;;;;;-2.08;100.00;102144.56;5043768;28;20239;-86
2022/01/21 05:20:34;;;;;;;9.00;1.58;;;;;;;-2.08;100.00;102133.44;5033583;28;20515;-85
2022/01/21 05:23:01;;;;;;;5.18;1.52;;;;;;;-2.04;100.00;102135.41;5038544;28;20040;-84
2022/01/21 05:25:27;;;;;;;9.40;1.58;;;;;;;-1.98;100.00;102133.25;5022585;28;20076;-87
2022/01/21 05:27:58;;;;;;;10.93;1.80;;;;;;;-1.89;100.00;102118.47;5024820;28;20056;-85
2022/01/21 05:30:24;;;;;;;7.22;0.82;;;;;;;-1.78;100.00;102133.69;5037003;28;20056;-85
2022/01/21 05:32:51;;;;;;;9.55;1.75;;;;;;;-1.73;100.00;102132.31;5035838;28;20041;-85
2022/01/21 05:35:18;;;;;;;5.65;1.25;;;;;;;-1.67;100.00;102141.28;5021837;28;20048;-86
2022/01/21 05:37:45;;;;;;;8.20;1.98;;;;;;;-1.58;100.00;102146.09;5030103;28;20535;-85
2022/01/21 05:40:14;;;;;;;6.78;1.02;;;;;;;-1.51;100.00;102153.44;5038886;28;20052;-85
2022/01/21 05:42:41;;;;;;;6.30;1.75;;;;;;;-1.45;100.00;102163.19;5042103;28;20079;-86
2022/01/21 05:47:53;;;;;;;11.65;1.55;;;;;;;-1.30;100.00;102162.41;5038649;28;20128;-86
2022/01/21 05:50:20;;;;;;;4.75;1.90;;;;;;;-1.25;100.00;102161.00;5031293;28;20053;-86
2022/01/21 05:52:47;;;;;;;14.73;2.97;;;;;;;-1.18;100.00;102151.22;5028850;28;20048;-90
2022/01/21 05:55:17;;;;;;;7.95;2.90;;;;;;;-1.12;100.00;102153.31;5044945;28;20055;-87
2022/01/21 05:57:45;;;;;;;16.33;2.40;;;;;;;-1.08;100.00;102152.72;5028895;28;20367;-88
2022/01/21 06:00:13;;;;;;;17.75;2.42;;;;;;;-1.05;100.00;102160.59;5043846;28;20055;-89
2022/01/21 06:02:39;;;;;;;21.13;2.33;;;;;;;-1.02;100.00;102153.09;5011286;28;20057;-87
2022/01/21 06:05:07;;;;;;;12.35;3.47;;;;;;;-0.97;100.00;102140.50;5025097;28;20095;-85
2022/01/21 06:07:35;;;;;;;2.35;1.40;;;;;;;-0.92;100.00;102141.69;5012617;28;20076;-85
2022/01/21 06:10:04;;;;;;;7.70;1.15;;;;;;;-0.92;100.00;102146.81;5025337;28;20468;-87
2022/01/21 06:12:31;;;;;;;7.93;1.60;;;;;;;-0.88;100.00;102140.19;5028706;28;20536;-86
2022/01/21 06:14:58;;;;;;;7.25;2.25;;;;;;;-0.84;100.00;102142.16;5028096;28;20515;-85
2022/01/21 06:17:25;;;;;;;8.38;2.55;;;;;;;-0.79;100.00;102156.19;5007595;28;20053;-86
2022/01/21 06:19:52;;;;;;;7.72;1.13;;;;;;;-0.77;100.00;102159.75;5026109;28;20048;-85
2022/01/21 06:22:18;;;;;;;3.83;1.35;;;;;;;-0.77;100.00;102153.72;5007601;28;20055;-87
2022/01/21 06:24:46;;;;;;;9.45;1.77;;;;;;;-0.75;100.00;102165.88;5038043;28;20320;-88
2022/01/21 06:27:15;;;;;;;9.82;1.73;;;;;;;-0.73;100.00;102159.16;5034657;28;20289;-83
2022/01/21 06:29:42;;;;;;;10.77;1.25;;;;;;;-0.69;100.00;102168.81;5012756;28;20504;-88
2022/01/21 06:32:10;;;;;;;3.20;1.13;;;;;;;-0.64;100.00;102170.78;5027743;28;20059;-87
2022/01/21 06:34:42;;;;;;;10.80;3.30;;;;;;;-0.60;100.00;102170.16;5023334;28;20406;-82
2022/01/21 06:37:19;;;;;;;5.68;1.25;;;;;;;-0.55;100.00;102181.63;5019523;28;20066;-85
2022/01/21 06:39:46;;;;;;;9.50;1.42;;;;;;;-0.51;100.00;102175.88;5036070;28;20384;-84
2022/01/21 06:42:12;;;;;;;7.85;1.33;;;;;;;-0.48;100.00;102183.78;5029871;28;20059;-86
2022/01/21 06:44:39;;;;;;;7.13;1.63;;;;;;;-0.43;100.00;102182.41;5041106;28;20060;-88
2022/01/21 06:47:09;;;;;;;5.35;1.67;;;;;;;-0.40;100.00;102177.41;5030630;28;20045;-83
2022/01/21 06:49:47;;;;;;;6.68;3.67;;;;;;;-0.39;100.00;102170.56;5050728;28;20395;-83
2022/01/21 06:52:20;;;;;;;5.65;1.17;;;;;;;-0.37;100.00;102176.72;5049789;28;20083;-87
2022/01/21 06:54:47;;;;;;;4.07;1.13;;;;;;;-0.36;100.00;102181.06;5027216;28;20049;-86
2022/01/21 06:57:16;;;;;;;6.78;1.42;;;;;;;-0.34;100.00;102179.47;5018187;28;20052;-85
2022/01/21 06:59:49;;;;;;;6.93;1.55;;;;;;;-0.30;100.00;102175.41;5019437;28;20129;-85
2022/01/21 07:02:19;;;;;;;5.00;1.98;;;;;;;-0.26;100.00;102185.06;5014094;28;20044;-84
2022/01/21 07:04:48;;;;;;;8.68;1.92;;;;;;;-0.22;100.00;102189.59;5026230;28;20761;-87
2022/01/21 07:07:19;;;;;;;8.00;1.30;;;;;;;-0.19;100.00;102182.97;5000590;28;20136;-88
2022/01/21 07:09:46;;;;;;;7.75;1.98;;;;;;;-0.17;100.00;102190.75;5019371;28;20041;-86
2022/01/21 07:12:12;;;;;;;3.92;1.48;;;;;;;-0.14;100.00;102196.13;5014637;28;20534;-87
2022/01/21 07:14:39;;;;;;;13.60;1.98;;;;;;;-0.15;100.00;102196.91;5018547;28;20056;-87
2022/01/21 07:17:06;;;;;;;10.73;1.60;;;;;;;-0.19;100.00;102195.81;5027432;28;20045;-87
2022/01/21 07:19:32;;;;;;;4.47;1.40;;;;;;;-0.19;100.00;102198.41;4992599;28;20053;-86
2022/01/21 07:21:59;;;;;;;9.10;1.95;;;;;;;-0.20;100.00;102201.75;5027488;28;20419;-86
2022/01/21 07:24:26;;;;;;;8.05;1.95;;;;;;;-0.20;100.00;102206.91;5007379;28;20056;-86
2022/01/21 07:26:54;;;;;;;20.60;2.10;;;;;;;-0.24;100.00;102220.41;5039715;28;20072;-86
2022/01/21 07:29:21;;;;;;;15.00;2.78;;;;;;;-0.27;100.00;102222.78;5040311;28;20052;-87
2022/01/21 07:31:51;;;;;;;8.20;2.03;;;;;;;-0.26;100.00;102234.88;5036067;28;20074;-86
2022/01/21 07:34:18;;;;;;;12.38;2.85;;;;;;;-0.26;100.00;102221.09;5041936;28;20162;-87
2022/01/21 07:36:44;;;;;;;8.60;2.72;;;;;;;-0.24;100.00;102229.81;5019537;28;20094;-87
2022/01/21 07:39:11;;;;;;;11.07;2.03;;;;;;;-0.25;100.00;102233.19;5043012;28;20036;-87
2022/01/21 07:41:37;;;;;;;8.57;2.03;;;;;;;-0.25;100.00;102226.38;5029053;28;20052;-87
2022/01/21 07:44:04;;;;;;;6.68;3.90;;;;;;;-0.21;100.00;102233.47;5038840;28;20132;-86
2022/01/21 07:46:34;;;;;;;11.02;2.28;;;;;;;-0.20;100.00;102229.19;5029123;28;20522;-86
2022/01/21 07:49:01;;;;;;;8.00;2.20;;;;;;;-0.17;100.00;102232.84;5027691;28;20626;-86
2022/01/21 07:51:30;;;;;;;9.38;2.85;;;;;;;-0.15;100.00;102220.06;5041234;28;20083;-87
2022/01/21 07:53:57;;;;;;;12.05;3.05;;;;;;;-0.11;100.00;102228.88;5028343;28;20128;-87
2022/01/21 07:56:24;;;;;;;15.43;2.42;;;;;;;-0.12;100.00;102229.66;5026374;28;20052;-87
2022/01/21 07:58:53;;;;;;;12.55;2.40;;;;;;;-0.13;100.00;102220.16;5031220;28;20040;-86
2022/01/21 08:01:20;;;;;;;15.45;5.97;;;;;;;-0.13;100.00;102223.63;5032097;28;20048;-87
2022/01/21 08:03:47;;;;;;;7.90;4.93;;;;;;;-0.07;100.00;102217.97;5047610;28;20052;-87
2022/01/21 08:06:13;;;;;;;9.18;2.28;;;;;;;-0.03;100.00;102214.75;5044695;28;20075;-88
2022/01/21 08:08:40;;;;;;;7.00;2.55;;;;;;;-0.02;100.00;102219.13;5042089;28;20049;-87
2022/01/21 08:11:07;;;;;;;10.35;2.13;;;;;;;0.03;100.00;102222.88;5031028;28;20049;-86
2022/01/21 08:13:36;;;;;;;7.78;2.28;;;;;;;0.08;100.00;102215.38;5036819;28;21454;-88
2022/01/21 08:16:02;;;;;;;13.90;2.03;;;;;;;0.12;100.00;102207.94;5030956;28;20581;-87
2022/01/21 08:18:30;;;;;;;4.10;1.30;;;;;;;0.15;100.00;102207.25;5031100;28;20045;-87
2022/01/21 08:20:57;;;;;;;12.15;2.30;;;;;;;0.18;100.00;102212.56;5029368;28;20053;-87
2022/01/21 08:23:23;;;;;;;9.38;1.80;;;;;;;0.21;100.00;102219.56;5040621;28;20045;-87
2022/01/21 08:25:51;;;;;;;6.43;1.50;;;;;;;0.21;100.00;102215.34;5019934;28;20504;-87
2022/01/21 08:28:17;;;;;;;5.35;2.15;;;;;;;0.22;100.00;102211.97;5042367;28;20044;-87
2022/01/21 08:30:44;;;;;;;5.50;2.58;;;;;;;0.31;100.00;102216.75;5023510;28;20503;-88
2022/01/21 08:33:10;;;;;;;2.85;1.67;;;;;;;0.39;100.00;102218.09;5004011;28;20049;-86
2022/01/21 08:35:37;;;;;;;8.80;2.03;;;;;;;0.44;100.00;102211.53;5006687;28;20053;-87
2022/01/21 08:38:05;;;;;;;6.35;1.85;;;;;;;0.50;100.00;102223.84;5008602;28;20056;-87
2022/01/21 08:40:33;;;;;;;5.82;1.35;;;;;;;0.56;100.00;102213.00;5012888;28;20053;-88
2022/01/21 08:43:00;;;;;;;7.00;2.03;;;;;;;0.63;100.00;102223.75;5033294;28;20144;-88
2022/01/21 08:45:29;;;;;;;5.40;1.95;;;;;;;0.71;100.00;102219.03;5024440;28;20109;-88
2022/01/21 08:47:56;;;;;;;4.38;1.60;;;;;;;0.79;100.00;102216.91;5018718;28;20116;-87
2022/01/21 08:50:23;;;;;;;9.60;2.60;;;;;;;0.90;100.00;102222.63;5030100;28;20049;-87
2022/01/21 08:52:55;;;;;;;4.45;1.42;;;;;;;0.87;100.00;102214.75;5030986;28;20049;-85
2022/01/21 08:55:22;;;;;;;4.50;1.55;;;;;;;0.89;100.00;102236.38;5011104;28;20080;-86
2022/01/21 08:57:49;;;;;;;10.05;2.50;;;;;;;0.87;100.00;102227.63;5023681;28;20103;-89
2022/01/21 09:00:20;;;;;;;5.93;2.15;;;;;;;0.90;100.00;102238.13;5023366;28;20407;-87
2022/01/21 09:02:51;;;;;;;9.18;1.77;;;;;;;0.92;100.00;102231.38;5006752;28;20053;-86
2022/01/21 09:05:18;;;;;;;6.38;2.78;;;;;;;0.96;100.00;102228.16;4997405;28;20199;-87
2022/01/21 09:07:44;;;;;;;7.88;2.63;;;;;;;0.97;100.00;102242.81;5032737;28;20743;-87
2022/01/21 09:10:13;;;;;;;6.90;2.70;;;;;;;0.96;100.00;102246.19;5012590;28;20064;-88
2022/01/21 09:12:40;;;;;;;1.85;1.35;;;;;;;0.98;100.00;102253.22;5017321;28;20060;-87
2022/01/21 09:15:08;;;;;;;7.65;2.28;;;;;;;0.99;100.00;102251.50;5016051;28;20311;-87
2022/01/21 09:17:36;;;;;;;5.90;2.40;;;;;;;1.01;100.00;102249.94;5040493;28;20060;-87
2022/01/21 09:20:04;;;;;;;5.85;2.03;;;;;;;0.98;100.00;102258.38;5007242;28;20511;-87
2022/01/21 09:22:31;;;;;;;6.20;2.30;;;;;;;0.96;100.00;102267.69;5036724;28;20988;-87
2022/01/21 09:24:58;;;;;;;9.20;2.25;;;;;;;1.00;100.00;102268.78;5036073;28;20049;-88
2022/01/21 09:27:24;;;;;;;5.35;2.53;;;;;;;1.07;100.00;102262.25;5031896;28;20065;-88
2022/01/21 09:29:51;;;;;;;4.97;1.50;;;;;;;1.10;100.00;102260.75;5017140;28;21122;-87
2022/01/21 09:32:17;;;;;;;10.05;3.10;;;;;;;1.12;100.00;102269.47;5036900;28;20143;-86
2022/01/21 09:34:44;;;;;;;6.53;2.40;;;;;;;1.18;100.00;102274.06;5012009;28;20057;-87
2022/01/21 09:37:10;;;;;;;6.38;1.70;;;;;;;1.26;100.00;102283.13;5017568;28;20045;-85
2022/01/21 09:39:38;;;;;;;7.50;2.30;;;;;;;1.35;100.00;102279.28;5015498;28;20103;-86
2022/01/21 09:42:06;;;;;;;4.80;2.05;;;;;;;1.38;100.00;102269.13;5012212;28;20169;-87
2022/01/21 09:44:33;;;;;;;2.35;2.00;;;;;;;1.43;100.00;102278.00;5040089;28;20076;-87
2022/01/21 09:47:01;;;;;;;9.35;3.53;;;;;;;1.46;100.00;102281.66;5028714;28;20050;-87
2022/01/21 09:49:29;;;;;;;10.75;1.80;;;;;;;1.50;100.00;102277.56;5014909;28;20045;-88
2022/01/21 09:52:16;;;;;;;5.57;2.08;;;;;;;1.49;100.00;102270.59;5025766;28;20048;-86
2022/01/21 09:54:47;;;;;;;5.47;3.42;;;;;;;1.52;100.00;102275.06;5014945;28;20128;-87
2022/01/21 09:57:26;;;;;;;4.00;1.60;;;;;;;1.57;100.00;102282.22;5016081;28;20044;-87
2022/01/21 09:59:55;;;;;;;3.60;1.92;;;;;;;1.65;100.00;102283.50;5027126;28;20037;-86
2022/01/21 10:02:30;;;;;;;3.67;2.65;;;;;;;1.75;100.00;102282.31;5018988;28;20044;-86
2022/01/21 10:04:59;;;;;;;9.10;2.47;;;;;;;1.86;100.00;102282.03;5019184;28;20598;-87
2022/01/21 10:07:26;;;;;;;6.07;1.92;;;;;;;1.95;100.00;102287.66;5037061;28;20049;-87
2022/01/21 10:09:54;;;;;;;6.05;1.65;;;;;;;1.98;100.00;102286.13;5001251;28;20049;-87
2022/01/21 10:12:22;;;;;;;7.20;3.33;;;;;;;2.04;100.00;102282.09;5031352;28;21143;-87
2022/01/21 10:14:48;;;;;;;7.10;2.00;;;;;;;2.08;100.00;102284.03;5019464;28;20056;-87
2022/01/21 10:17:16;;;;;;;8.43;2.20;;;;;;;2.13;100.00;102285.16;5019058;28;20396;-88
2022/01/21 10:19:45;;;;;;;5.18;1.90;;;;;;;2.18;100.00;102285.38;5021074;28;20181;-87
2022/01/21 10:22:19;;;;;;;3.47;1.98;;;;;;;2.19;100.00;102288.06;5020880;28;20431;-87
2022/01/21 10:25:00;;;;;;;2.70;1.70;;;;;;;2.20;100.00;102287.22;5033435;28;20041;-87
2022/01/21 10:27:35;;;;;;;8.00;1.80;;;;;;;2.22;100.00;102292.50;5016794;28;20053;-87
2022/01/21 10:30:03;;;;;;;4.90;1.63;;;;;;;2.24;100.00;102290.88;5011486;28;23002;-87
2022/01/21 10:32:40;;;;;;;4.72;1.85;;;;;;;2.29;100.00;102289.41;5010924;28;20082;-87
2022/01/21 10:35:30;;;;;;;4.85;1.63;;;;;;;2.39;100.00;102288.22;5013040;28;20057;-87
2022/01/21 10:37:57;;;;;;;7.50;1.98;;;;;;;2.44;100.00;102277.28;5009387;28;20059;-88
2022/01/21 10:40:24;;;;;;;5.28;2.05;;;;;;;2.47;100.00;102273.97;5028723;28;20600;-87
2022/01/21 10:42:50;;;;;;;3.05;2.10;;;;;;;2.49;100.00;102274.94;5008175;28;20144;-86
2022/01/21 10:45:17;;;;;;;6.30;2.08;;;;;;;2.52;100.00;102274.22;5019491;28;20056;-87
2022/01/21 10:47:51;;;;;;;5.82;2.33;;;;;;;2.45;99.85;102279.06;5043586;28;20053;-87
2022/01/21 10:50:24;;;;;;;4.30;1.85;;;;;;;2.45;100.00;102281.66;5036601;28;20045;-87
2022/01/21 10:52:53;;;;;;;2.78;1.58;;;;;;;2.65;100.00;102289.50;5050311;28;20041;-88
2022/01/21 10:55:37;;;;;;;7.05;3.25;;;;;;;2.85;99.77;102284.44;5040727;28;20045;-87
2022/01/21 10:58:17;;;;;;;7.60;2.40;;;;;;;3.07;98.25;102289.81;5029220;28;20060;-87
2022/01/21 11:01:03;;;;;;;5.78;1.90;;;;;;;3.07;97.45;102287.25;5043136;28;20057;-87
2022/01/21 11:03:31;;;;;;;6.68;2.05;;;;;;;3.10;98.03;102284.81;5019776;28;20052;-87
2022/01/21 11:06:19;;;;;;;7.32;2.20;;;;;;;3.14;96.85;102284.16;5035528;28;20048;-87
2022/01/21 11:08:46;;;;;;;9.38;1.77;;;;;;;3.13;97.52;102291.84;5023823;28;20152;-87
2022/01/21 11:11:12;;;;;;;10.32;2.65;;;;;;;3.22;97.93;102288.78;5047938;28;20060;-85
2022/01/21 11:13:41;;;;;;;5.93;2.08;;;;;;;3.34;96.89;102288.47;5040941;28;20077;-86
2022/01/21 11:16:16;;;;;;;3.15;1.48;;;;;;;3.37;95.42;102291.22;5044625;28;20076;-86
2022/01/21 11:19:06;;;;;;;2.70;1.63;;;;;;;3.31;95.22;102291.81;5039718;28;20068;-86
2022/01/21 11:21:45;;;;;;;3.95;1.58;;;;;;;3.31;96.05;102294.41;5041251;28;20104;-87
2022/01/21 11:24:14;;;;;;;7.03;1.85;;;;;;;3.45;95.77;102295.06;5011931;28;20056;-87
2022/01/21 11:26:41;;;;;;;7.63;2.42;;;;;;;3.55;95.00;102296.38;5030513;28;20064;-88
2022/01/21 11:29:11;;;;;;;4.22;2.40;;;;;;;3.58;94.27;102299.09;5031390;28;20543;-87
2022/01/21 11:31:38;;;;;;;9.35;3.08;;;;;;;3.66;94.70;102305.50;5006587;28;20051;-87
2022/01/21 11:34:04;;;;;;;4.38;1.95;;;;;;;3.66;93.53;102294.28;5024902;28;20053;-85
2022/01/21 11:36:31;;;;;;;8.57;1.67;;;;;;;3.69;94.14;102297.00;5005341;28;20081;-86
2022/01/21 11:38:58;;;;;;;10.45;2.28;;;;;;;3.67;93.55;102298.66;5015097;28;20056;-87
2022/01/21 11:41:28;;;;;;;7.32;2.22;;;;;;;3.56;93.89;102295.53;5025979;28;20063;-88
2022/01/21 11:44:00;;;;;;;5.50;1.60;;;;;;;3.44;94.66;102298.44;5012148;28;20063;-87
2022/01/21 11:46:41;;;;;;;3.80;1.70;;;;;;;3.35;95.50;102300.63;5025555;28;20048;-87
2022/01/21 11:49:19;;;;;;;8.68;2.00;;;;;;;3.29;95.65;102304.69;5029320;28;20143;-87
2022/01/21 11:51:46;;;;;;;7.05;1.85;;;;;;;3.24;96.50;102290.63;5046192;28;20549;-87
2022/01/21 11:54:26;;;;;;;9.65;1.98;;;;;;;3.20;97.22;102293.03;5032278;28;20078;-87
2022/01/21 11:57:02;;;;;;;6.93;1.98;;;;;;;3.14;98.33;102307.44;5040943;28;20041;-86
2022/01/21 11:59:34;;;;;;;7.28;1.90;;;;;;;3.05;99.59;102290.56;5028933;28;20132;-86
2022/01/21 12:02:18;;;;;;;14.02;4.53;;;;;;;2.95;99.99;102281.50;5032122;28;20131;-86
2022/01/21 12:04:52;;;;;;;5.00;1.90;;;;;;;2.89;100.00;102281.19;5034653;28;20065;-87
2022/01/21 12:07:48;;;;;;;8.65;2.80;;;;;;;2.85;100.00;102287.91;5033575;28;20053;-87